Friday, April 29, 2016
14:00 UTC
  |  Log In   |  Register Free
Airport Search:

Seattle-Tacoma International Airport
(KSEA)

FAA data valid effective Mar 31 2016 - May 26 2016 (unless otherwise noted).

 
 
 
 
 
 
 
 
 
 
 
 
 
 
Current Aviation Weather for KSEA

Weather Summary


The most recent METAR observation for SEA was updated at: 13:07 UTC
METAR for KSEA is not available. Closest METAR is for KRNT
KSEA  (most recent observation was updatred at 29:13 UTC)
291353Z 17005KT 10SM OVC019 09/06 A3009 RMK AO2 SLP195 T00940056

KRNT  (4.6 nm SW)   (most recent observation was updated at 29:13 UTC)
291353Z 00000KT 10SM OVC029 11/06 A3008 RMK AO2 SLP192 T01060061

KBFI  (4.9 nm SW)   (most recent observation was updated at 29:13 UTC)
291353Z 14005KT 10SM OVC031 11/07 A3009 RMK AO2 SLP187 T01060067 $

TAF for KSEA is not available.
KSEA
291120Z 2912/3018 20006KT P6SM OVC020 FM291400 22007KT P6SM -SHRA SCT008 OVC015 FM292100 26005KT P6SM VCSH SCT035 BKN050 FM300000 33006KT P6SM SCT035 BKN050 FM300300 VRB03KT P6SM BKN050 FM300700 17005KT P6SM BKN050

KBFI  (4.9 nm SW)   (most recent observation was updatred at 29:11 UTC)
291120Z 2912/3012 16005KT P6SM SCT018 OVC025 FM291400 18005KT P6SM -SHRA SCT012 OVC018 FM292000 25005KT P6SM VCSH SCT020 BKN030 FM300000 27006KT P6SM SCT035 BKN050 FM300300 VRB03KT P6SM BKN050


KTCM  (19.9 nm NE)   (most recent observation was updatred at 29:13 UTC)
291305Z 2913/3019 21010KT 9000 -SHRA BKN020 610504 QNH3006INS TEMPO 2913/2917 BKN014 BECMG 2923/2924 30006KT 9999 NSW BKN040 620604 QNH3011INS BECMG 3009/3010 23008KT 6000 BR BKN025 QNH3017INS BECMG 3015/3016 35008KT 9999 NSW BKN030 QNH3025INS TX15/2922Z TN08/3012Z
GlobalAir.com is loading additional information.
 Current Weather at SEA
49.0 F° (9.4 C°)

South winds at 4.6 mph
Pressure:
30.08 in
Humidity:
74%
Wind:
South at 4.6 mph
Dew Point:
41.0 F° (5.0 C°)
Visibility:
10.00 mi
SEA NOAA Radar




Find All Airport Services Find A Hotel Find A Rental Car Find A Golf Course Find A Restaurant $100 Hamburger



Airport Weather Forecast for KSEA

Translated METAR for KSEA (1353 UTC)
METAR:
KSEA 291353Z 17005KT 10SM OVC019 09/06 A3009 RMK AO2 SLP195 T00940056
Conditions at:
KSEA (Seattle-Tacoma Intl, WA) observed 1353 UTC 29 April 2016
Temperature:
9°C (48.2°F)
Dewpoint:
6°C (42.8°F) [RH = 81.5]
Pressure:
30.09 inches Hg (1019 mb)
pressure at sea level is 195 in Hg
Winds:
from the S (170 degrees) at 5.8 mph (5 knots: 2.6 m/s)
Visibility:
10 mile(s)
Ceiling:
1,900 feet AGL
Clouds:
Overcast Skies at 1,900 feet AGL
Remarks:
site is automated and HAS a precipitation sensor

Translated TAF for KSEA (Seattle-Tacoma Intl, WA) (1120 UTC)
TAF text:
KSEA 291120Z 2912/3018 20006KT P6SM OVC020
Forecast period:
Friday Apr 29 2016 12:00 UTC - Saturday Apr 30 2016 18:00 UTC
Forecast type:
FROM: standard forecast or significant change
Winds:
from the SSW (200 degrees) at 6.9 mph (6 knots: 3.1 m/s)
Visibility:
6 or more mile(s) (9.7+ km)
Ceiling:
2,000 feet AGL
Clouds:
Overcast Skies at 2,000 feet AGL
Weather:
no significant weather observed at this time
TAF text:
FM291400 22007KT P6SM -SHRA SCT008 OVC015
Forecast period:
Friday Apr 29 2016 14:00 UTC - Friday Apr 29 2016 21:00 UTC
Forecast type:
FROM: standard forecast or significant change
Winds:
from the SW (220 degrees) at 8.1 mph (7 knots: 3.6 m/s)
Visibility:
6 or more mile(s) (9.7+ km)
Ceiling:
1,500 feet AGL
Clouds:
Scattered Clouds at 800 feet AGL
Overcast Skies at 1,500 feet AGL
Weather:
Light Shower(s) Rain
TAF text:
FM292100 26005KT P6SM VCSH SCT035 BKN050
Forecast period:
Friday Apr 29 2016 21:00 UTC - Saturday Apr 30 2016 00:00 UTC
Forecast type:
FROM: standard forecast or significant change
Winds:
from the W (260 degrees) at 5.8 mph (5 knots: 2.6 m/s)
Visibility:
6 or more mile(s) (9.7+ km)
Ceiling:
5,000 feet AGL
Clouds:
Scattered Clouds at 3,500 feet AGL
Broken Cloud Cover at 5,000 feet AGL
Weather:
Moderate In Vicinity Shower(s)
TAF text:
FM300000 33006KT P6SM SCT035 BKN050
Forecast period:
Saturday Apr 30 2016 00:00 UTC - Saturday Apr 30 2016 03:00 UTC
Forecast type:
FROM: standard forecast or significant change
Winds:
from the NNW (330 degrees) at 6.9 mph (6 knots: 3.1 m/s)
Visibility:
6 or more mile(s) (9.7+ km)
Ceiling:
5,000 feet AGL
Clouds:
Scattered Clouds at 3,500 feet AGL
Broken Cloud Cover at 5,000 feet AGL
Weather:
no significant weather observed at this time
TAF text:
FM300300 VRB03KT P6SM BKN050
Forecast period:
Saturday Apr 30 2016 03:00 UTC - Saturday Apr 30 2016 07:00 UTC
Forecast type:
FROM: standard forecast or significant change
Winds:
variable wind direction at 3.5 mph (3 knots: 1.5 m/s)
Visibility:
6 or more mile(s) (9.7+ km)
Ceiling:
5,000 feet AGL
Clouds:
Broken Cloud Cover at 5,000 feet AGL
Weather:
no significant weather observed at this time
TAF text:
FM300700 17005KT P6SM BKN050
Forecast period:
Saturday Apr 30 2016 07:00 UTC - Saturday Apr 30 2016 18:00 UTC
Forecast type:
FROM: standard forecast or significant change
Winds:
from the S (170 degrees) at 5.8 mph (5 knots: 2.6 m/s)
Visibility:
6 or more mile(s) (9.7+ km)
Ceiling:
5,000 feet AGL
Clouds:
Broken Cloud Cover at 5,000 feet AGL
Weather:
no significant weather observed at this time
FBO's on the Field
FBO Company Facility Photos Services Transportation Aviation Fuel Prices: Prices include tax
Catering Weather Repair Courtesy Rental Type 100LL JetA JetA+ MOGAS 8087
 
Aircraft Service Intl.

This FBO has not yet been rated
FS:Independent
Last Updated: Apr-22
Login to update fuel prices
SS:
Contact Aircraft Service Intl.More FBO Information
 
Add another FBO Facility Photos Catering Weather Repair Courtesy Rental Type 100LL JetA JetA+ MOGAS 8087
Services Transportation Aviation Fuel Prices: Prices include tax


model-print
model-print
model-print
model-print